sensor_id;sensor_type;location;lat;lon;timestamp;noise_LAeq;noise_LA_min;noise_LA_max;noise_LA01;noise_LA95
48148;Laerm;29352;48.708;9.290;2023-06-10T00:01:36;15.00;15.00;15.00;;
48148;Laerm;29352;48.708;9.290;2023-06-10T00:04:03;15.00;15.00;15.00;;
48148;Laerm;29352;48.708;9.290;2023-06-10T00:06:30;15.00;15.00;15.00;;
48148;Laerm;29352;48.708;9.290;2023-06-10T00:09:05;15.00;15.00;15.00;;
48148;Laerm;29352;48.708;9.290;2023-06-10T00:11:32;15.00;15.00;15.00;;
48148;Laerm;29352;48.708;9.290;2023-06-10T00:13:58;15.00;15.00;15.00;;
48148;Laerm;29352;48.708;9.290;2023-06-10T00:16:24;15.00;15.00;15.00;;
48148;Laerm;29352;48.708;9.290;2023-06-10T00:18:50;15.00;15.00;15.00;;
48148;Laerm;29352;48.708;9.290;2023-06-10T00:21:22;15.00;15.00;15.00;;
48148;Laerm;29352;48.708;9.290;2023-06-10T00:23:48;15.00;15.00;15.00;;
48148;Laerm;29352;48.708;9.290;2023-06-10T00:26:13;15.00;15.00;15.00;;
48148;Laerm;29352;48.708;9.290;2023-06-10T00:28:39;15.00;15.00;15.00;;
48148;Laerm;29352;48.708;9.290;2023-06-10T00:31:04;15.00;15.00;15.00;;
48148;Laerm;29352;48.708;9.290;2023-06-10T00:33:30;15.00;15.00;15.00;;
48148;Laerm;29352;48.708;9.290;2023-06-10T00:35:56;15.00;15.00;15.00;;
48148;Laerm;29352;48.708;9.290;2023-06-10T00:38:21;15.00;15.00;15.00;;
48148;Laerm;29352;48.708;9.290;2023-06-10T00:40:47;15.00;15.00;15.00;;
48148;Laerm;29352;48.708;9.290;2023-06-10T00:43:12;15.00;15.00;15.00;;
48148;Laerm;29352;48.708;9.290;2023-06-10T00:45:38;15.00;15.00;15.00;;
48148;Laerm;29352;48.708;9.290;2023-06-10T00:48:04;15.00;15.00;15.00;;
48148;Laerm;29352;48.708;9.290;2023-06-10T00:50:31;15.00;15.00;15.00;;
48148;Laerm;29352;48.708;9.290;2023-06-10T00:52:58;15.00;15.00;15.00;;
48148;Laerm;29352;48.708;9.290;2023-06-10T00:55:24;15.00;15.00;15.00;;
48148;Laerm;29352;48.708;9.290;2023-06-10T00:57:53;15.00;15.00;15.00;;
48148;Laerm;29352;48.708;9.290;2023-06-10T01:00:19;15.00;15.00;15.00;;
48148;Laerm;29352;48.708;9.290;2023-06-10T01:02:45;15.00;15.00;15.00;;
48148;Laerm;29352;48.708;9.290;2023-06-10T01:05:11;15.00;15.00;15.00;;
48148;Laerm;29352;48.708;9.290;2023-06-10T01:07:59;15.00;15.00;15.00;;
48148;Laerm;29352;48.708;9.290;2023-06-10T01:10:41;15.00;15.00;15.00;;
48148;Laerm;29352;48.708;9.290;2023-06-10T01:13:11;15.00;15.00;15.00;;
48148;Laerm;29352;48.708;9.290;2023-06-10T01:15:39;15.00;15.00;15.00;;
48148;Laerm;29352;48.708;9.290;2023-06-10T01:18:08;15.00;15.00;15.00;;
48148;Laerm;29352;48.708;9.290;2023-06-10T01:20:37;15.00;15.00;15.00;;
48148;Laerm;29352;48.708;9.290;2023-06-10T01:23:07;15.00;15.00;15.00;;
48148;Laerm;29352;48.708;9.290;2023-06-10T01:25:53;15.00;15.00;15.00;;
48148;Laerm;29352;48.708;9.290;2023-06-10T01:31:38;15.00;15.00;15.00;;
48148;Laerm;29352;48.708;9.290;2023-06-10T01:34:14;15.00;15.00;15.00;;
48148;Laerm;29352;48.708;9.290;2023-06-10T01:36:46;15.00;15.00;15.00;;
48148;Laerm;29352;48.708;9.290;2023-06-10T01:39:17;15.00;15.00;15.00;;
48148;Laerm;29352;48.708;9.290;2023-06-10T01:41:44;15.00;15.00;15.00;;
48148;Laerm;29352;48.708;9.290;2023-06-10T01:44:10;15.00;15.00;15.00;;
48148;Laerm;29352;48.708;9.290;2023-06-10T01:46:36;15.00;15.00;15.00;;
48148;Laerm;29352;48.708;9.290;2023-06-10T01:49:02;15.00;15.00;15.00;;
48148;Laerm;29352;48.708;9.290;2023-06-10T01:51:27;15.00;15.00;15.00;;
48148;Laerm;29352;48.708;9.290;2023-06-10T01:53:53;15.00;15.00;15.00;;
48148;Laerm;29352;48.708;9.290;2023-06-10T01:56:18;15.00;15.00;15.00;;
48148;Laerm;29352;48.708;9.290;2023-06-10T01:58:46;15.00;15.00;15.00;;
48148;Laerm;29352;48.708;9.290;2023-06-10T02:01:12;15.00;15.00;15.00;;
48148;Laerm;29352;48.708;9.290;2023-06-10T02:03:37;15.00;15.00;15.00;;
48148;Laerm;29352;48.708;9.290;2023-06-10T02:06:03;15.00;15.00;15.00;;
48148;Laerm;29352;48.708;9.290;2023-06-10T02:08:29;15.00;15.00;15.00;;
48148;Laerm;29352;48.708;9.290;2023-06-10T02:10:54;15.00;15.00;15.00;;
48148;Laerm;29352;48.708;9.290;2023-06-10T02:13:20;15.00;15.00;15.00;;
48148;Laerm;29352;48.708;9.290;2023-06-10T02:15:45;15.00;15.00;15.00;;
48148;Laerm;29352;48.708;9.290;2023-06-10T02:18:11;15.00;15.00;15.00;;
48148;Laerm;29352;48.708;9.290;2023-06-10T02:20:37;15.00;15.00;15.00;;
48148;Laerm;29352;48.708;9.290;2023-06-10T02:23:03;15.00;15.00;15.00;;
48148;Laerm;29352;48.708;9.290;2023-06-10T02:25:29;15.00;15.00;15.00;;
48148;Laerm;29352;48.708;9.290;2023-06-10T02:27:54;15.00;15.00;15.00;;
48148;Laerm;29352;48.708;9.290;2023-06-10T02:30:20;15.00;15.00;15.00;;
48148;Laerm;29352;48.708;9.290;2023-06-10T02:32:45;15.00;15.00;15.00;;
48148;Laerm;29352;48.708;9.290;2023-06-10T02:35:14;15.00;15.00;15.00;;
48148;Laerm;29352;48.708;9.290;2023-06-10T02:37:40;15.00;15.00;15.00;;
48148;Laerm;29352;48.708;9.290;2023-06-10T02:40:07;15.00;15.00;15.00;;
48148;Laerm;29352;48.708;9.290;2023-06-10T02:42:33;15.00;15.00;15.00;;
48148;Laerm;29352;48.708;9.290;2023-06-10T02:44:59;15.00;15.00;15.00;;
48148;Laerm;29352;48.708;9.290;2023-06-10T02:47:26;15.00;15.00;15.00;;
48148;Laerm;29352;48.708;9.290;2023-06-10T02:49:51;15.00;15.00;15.00;;
48148;Laerm;29352;48.708;9.290;2023-06-10T02:52:17;15.00;15.00;15.00;;
48148;Laerm;29352;48.708;9.290;2023-06-10T02:54:42;15.00;15.00;15.00;;
48148;Laerm;29352;48.708;9.290;2023-06-10T02:57:08;15.00;15.00;15.00;;
48148;Laerm;29352;48.708;9.290;2023-06-10T02:59:33;15.00;15.00;15.00;;
48148;Laerm;29352;48.708;9.290;2023-06-10T03:01:58;15.00;15.00;15.00;;
48148;Laerm;29352;48.708;9.290;2023-06-10T03:04:26;15.00;15.00;15.00;;
48148;Laerm;29352;48.708;9.290;2023-06-10T03:06:54;15.00;15.00;15.00;;
48148;Laerm;29352;48.708;9.290;2023-06-10T03:09:20;15.00;15.00;15.00;;
48148;Laerm;29352;48.708;9.290;2023-06-10T03:11:45;15.00;15.00;15.00;;
48148;Laerm;29352;48.708;9.290;2023-06-10T03:14:10;15.00;15.00;15.00;;
48148;Laerm;29352;48.708;9.290;2023-06-10T03:16:36;15.00;15.00;15.00;;
48148;Laerm;29352;48.708;9.290;2023-06-10T03:19:06;15.00;15.00;15.00;;
48148;Laerm;29352;48.708;9.290;2023-06-10T03:21:34;15.00;15.00;15.00;;
48148;Laerm;29352;48.708;9.290;2023-06-10T03:23:59;15.00;15.00;15.00;;
48148;Laerm;29352;48.708;9.290;2023-06-10T03:26:26;15.00;15.00;15.00;;
48148;Laerm;29352;48.708;9.290;2023-06-10T03:28:53;15.00;15.00;15.00;;
48148;Laerm;29352;48.708;9.290;2023-06-10T03:31:18;15.00;15.00;15.00;;
48148;Laerm;29352;48.708;9.290;2023-06-10T03:33:44;15.00;15.00;15.00;;
48148;Laerm;29352;48.708;9.290;2023-06-10T03:36:10;15.00;15.00;15.00;;
48148;Laerm;29352;48.708;9.290;2023-06-10T03:38:35;15.00;15.00;15.00;;
48148;Laerm;29352;48.708;9.290;2023-06-10T03:41:02;15.00;15.00;15.00;;
48148;Laerm;29352;48.708;9.290;2023-06-10T03:43:27;15.00;15.00;15.00;;
48148;Laerm;29352;48.708;9.290;2023-06-10T03:45:53;15.00;15.00;15.00;;
48148;Laerm;29352;48.708;9.290;2023-06-10T03:48:18;15.00;15.00;15.00;;
48148;Laerm;29352;48.708;9.290;2023-06-10T03:50:44;15.00;15.00;15.00;;
48148;Laerm;29352;48.708;9.290;2023-06-10T03:53:10;15.00;15.00;15.00;;
48148;Laerm;29352;48.708;9.290;2023-06-10T03:55:35;15.00;15.00;15.00;;
48148;Laerm;29352;48.708;9.290;2023-06-10T03:58:01;15.00;15.00;15.00;;
48148;Laerm;29352;48.708;9.290;2023-06-10T04:00:27;15.00;15.00;15.00;;
48148;Laerm;29352;48.708;9.290;2023-06-10T04:02:54;15.00;15.00;15.00;;
48148;Laerm;29352;48.708;9.290;2023-06-10T04:05:23;15.00;15.00;15.00;;
48148;Laerm;29352;48.708;9.290;2023-06-10T04:07:49;15.00;15.00;15.00;;
48148;Laerm;29352;48.708;9.290;2023-06-10T04:10:15;15.00;15.00;15.00;;
48148;Laerm;29352;48.708;9.290;2023-06-10T04:12:42;15.00;15.00;15.00;;
48148;Laerm;29352;48.708;9.290;2023-06-10T04:15:08;15.00;15.00;15.00;;
48148;Laerm;29352;48.708;9.290;2023-06-10T04:17:34;15.00;15.00;15.00;;
48148;Laerm;29352;48.708;9.290;2023-06-10T04:20:00;15.00;15.00;15.00;;
48148;Laerm;29352;48.708;9.290;2023-06-10T04:22:26;15.00;15.00;15.00;;
48148;Laerm;29352;48.708;9.290;2023-06-10T04:24:52;15.00;15.00;15.00;;
48148;Laerm;29352;48.708;9.290;2023-06-10T04:27:17;15.00;15.00;15.00;;
48148;Laerm;29352;48.708;9.290;2023-06-10T04:29:43;15.00;15.00;15.00;;
48148;Laerm;29352;48.708;9.290;2023-06-10T04:32:08;15.00;15.00;15.00;;
48148;Laerm;29352;48.708;9.290;2023-06-10T04:34:34;15.00;15.00;15.00;;
48148;Laerm;29352;48.708;9.290;2023-06-10T04:37:00;15.00;15.00;15.00;;
48148;Laerm;29352;48.708;9.290;2023-06-10T04:39:26;15.00;15.00;15.00;;
48148;Laerm;29352;48.708;9.290;2023-06-10T04:41:51;15.00;15.00;15.00;;
48148;Laerm;29352;48.708;9.290;2023-06-10T04:44:17;15.00;15.00;15.00;;
48148;Laerm;29352;48.708;9.290;2023-06-10T04:46:44;15.00;15.00;15.00;;
48148;Laerm;29352;48.708;9.290;2023-06-10T04:49:09;15.00;15.00;15.00;;
48148;Laerm;29352;48.708;9.290;2023-06-10T04:51:35;15.00;15.00;15.00;;
48148;Laerm;29352;48.708;9.290;2023-06-10T04:54:01;15.00;15.00;15.00;;
48148;Laerm;29352;48.708;9.290;2023-06-10T04:56:30;15.00;15.00;15.00;;
48148;Laerm;29352;48.708;9.290;2023-06-10T04:59:00;15.00;15.00;15.00;;
48148;Laerm;29352;48.708;9.290;2023-06-10T05:01:26;15.00;15.00;15.00;;
48148;Laerm;29352;48.708;9.290;2023-06-10T05:03:52;15.00;15.00;15.00;;
48148;Laerm;29352;48.708;9.290;2023-06-10T05:06:17;15.00;15.00;15.00;;
48148;Laerm;29352;48.708;9.290;2023-06-10T05:08:43;15.00;15.00;15.00;;
48148;Laerm;29352;48.708;9.290;2023-06-10T05:11:08;15.00;15.00;15.00;;
48148;Laerm;29352;48.708;9.290;2023-06-10T05:13:34;15.00;15.00;15.00;;
48148;Laerm;29352;48.708;9.290;2023-06-10T05:16:00;15.00;15.00;15.00;;
48148;Laerm;29352;48.708;9.290;2023-06-10T05:18:25;15.00;15.00;15.00;;
48148;Laerm;29352;48.708;9.290;2023-06-10T05:20:51;15.00;15.00;15.00;;
48148;Laerm;29352;48.708;9.290;2023-06-10T05:23:19;15.00;15.00;15.00;;
48148;Laerm;29352;48.708;9.290;2023-06-10T05:25:44;15.00;15.00;15.00;;
48148;Laerm;29352;48.708;9.290;2023-06-10T05:28:10;15.00;15.00;15.00;;
48148;Laerm;29352;48.708;9.290;2023-06-10T05:30:36;15.00;15.00;15.00;;
48148;Laerm;29352;48.708;9.290;2023-06-10T05:33:03;15.00;15.00;15.00;;
48148;Laerm;29352;48.708;9.290;2023-06-10T05:35:28;15.00;15.00;15.00;;
48148;Laerm;29352;48.708;9.290;2023-06-10T05:37:54;15.00;15.00;15.00;;
48148;Laerm;29352;48.708;9.290;2023-06-10T05:40:20;15.00;15.00;15.00;;
48148;Laerm;29352;48.708;9.290;2023-06-10T05:42:45;15.00;15.00;15.00;;
48148;Laerm;29352;48.708;9.290;2023-06-10T05:45:11;15.00;15.00;15.00;;
48148;Laerm;29352;48.708;9.290;2023-06-10T05:47:36;15.00;15.00;15.00;;
48148;Laerm;29352;48.708;9.290;2023-06-10T05:50:02;15.00;15.00;15.00;;
48148;Laerm;29352;48.708;9.290;2023-06-10T05:52:28;15.00;15.00;15.00;;
48148;Laerm;29352;48.708;9.290;2023-06-10T05:54:53;15.00;15.00;15.00;;
48148;Laerm;29352;48.708;9.290;2023-06-10T05:57:20;15.00;15.00;15.00;;
48148;Laerm;29352;48.708;9.290;2023-06-10T05:59:45;15.00;15.00;15.00;;
48148;Laerm;29352;48.708;9.290;2023-06-10T06:02:10;15.00;15.00;15.00;;
48148;Laerm;29352;48.708;9.290;2023-06-10T06:04:36;27.73;15.00;63.39;;
48148;Laerm;29352;48.708;9.290;2023-06-10T06:07:01;15.00;15.00;15.00;;
48148;Laerm;29352;48.708;9.290;2023-06-10T06:09:27;15.00;15.00;15.00;;
48148;Laerm;29352;48.708;9.290;2023-06-10T06:11:52;35.52;15.00;71.45;;
48148;Laerm;29352;48.708;9.290;2023-06-10T06:14:18;36.95;15.00;73.11;;
48148;Laerm;29352;48.708;9.290;2023-06-10T06:16:43;27.95;15.00;63.91;;
48148;Laerm;29352;48.708;9.290;2023-06-10T06:19:08;39.03;15.00;75.02;;
48148;Laerm;29352;48.708;9.290;2023-06-10T06:21:36;52.17;15.00;78.14;;
48148;Laerm;29352;48.708;9.290;2023-06-10T06:24:01;55.76;15.00;78.11;;
48148;Laerm;29352;48.708;9.290;2023-06-10T06:26:27;55.36;15.00;78.21;;
48148;Laerm;29352;48.708;9.290;2023-06-10T06:28:52;50.95;15.00;76.49;;
48148;Laerm;29352;48.708;9.290;2023-06-10T06:31:18;55.08;15.00;75.89;;
48148;Laerm;29352;48.708;9.290;2023-06-10T06:33:43;56.57;15.00;78.61;;
48148;Laerm;29352;48.708;9.290;2023-06-10T06:36:09;55.70;15.00;76.08;;
48148;Laerm;29352;48.708;9.290;2023-06-10T06:38:34;57.28;15.00;78.07;;
48148;Laerm;29352;48.708;9.290;2023-06-10T06:41:00;57.87;15.00;76.92;;
48148;Laerm;29352;48.708;9.290;2023-06-10T06:43:29;60.14;15.00;78.57;;
48148;Laerm;29352;48.708;9.290;2023-06-10T06:45:57;58.26;15.00;76.63;;
48148;Laerm;29352;48.708;9.290;2023-06-10T06:48:22;59.31;15.00;77.68;;
48148;Laerm;29352;48.708;9.290;2023-06-10T06:50:48;59.19;15.00;78.75;;
48148;Laerm;29352;48.708;9.290;2023-06-10T06:53:13;60.22;15.00;77.30;;
48148;Laerm;29352;48.708;9.290;2023-06-10T06:55:39;60.07;15.00;77.03;;
48148;Laerm;29352;48.708;9.290;2023-06-10T06:58:04;58.08;15.00;77.58;;
48148;Laerm;29352;48.708;9.290;2023-06-10T07:00:30;52.78;15.00;75.18;;
48148;Laerm;29352;48.708;9.290;2023-06-10T07:02:56;56.20;15.00;76.46;;
48148;Laerm;29352;48.708;9.290;2023-06-10T07:05:23;49.69;15.00;73.84;;
48148;Laerm;29352;48.708;9.290;2023-06-10T07:07:51;53.63;15.00;76.81;;
48148;Laerm;29352;48.708;9.290;2023-06-10T07:10:23;54.82;15.00;77.57;;
48148;Laerm;29352;48.708;9.290;2023-06-10T07:12:50;50.22;15.00;77.94;;
48148;Laerm;29352;48.708;9.290;2023-06-10T07:15:16;47.96;15.00;74.10;;
48148;Laerm;29352;48.708;9.290;2023-06-10T07:17:41;51.96;15.00;76.18;;
48148;Laerm;29352;48.708;9.290;2023-06-10T07:20:08;52.99;15.00;75.43;;
48148;Laerm;29352;48.708;9.290;2023-06-10T07:22:33;53.40;15.00;76.98;;
48148;Laerm;29352;48.708;9.290;2023-06-10T07:24:59;55.73;15.00;75.95;;
48148;Laerm;29352;48.708;9.290;2023-06-10T07:27:24;57.90;15.00;77.12;;
48148;Laerm;29352;48.708;9.290;2023-06-10T07:29:51;53.98;15.00;78.33;;
48148;Laerm;29352;48.708;9.290;2023-06-10T07:32:17;48.34;15.00;73.80;;
48148;Laerm;29352;48.708;9.290;2023-06-10T07:34:43;45.97;15.00;72.69;;
48148;Laerm;29352;48.708;9.290;2023-06-10T07:37:08;54.79;15.00;76.34;;
48148;Laerm;29352;48.708;9.290;2023-06-10T07:39:34;56.26;15.00;77.45;;
48148;Laerm;29352;48.708;9.290;2023-06-10T07:42:01;50.30;15.00;74.29;;
48148;Laerm;29352;48.708;9.290;2023-06-10T07:44:26;39.17;15.00;68.13;;
48148;Laerm;29352;48.708;9.290;2023-06-10T07:46:52;39.85;15.00;52.98;;
48148;Laerm;29352;48.708;9.290;2023-06-10T07:49:17;38.65;15.00;48.37;;
48148;Laerm;29352;48.708;9.290;2023-06-10T07:51:43;37.46;15.00;49.46;;
48148;Laerm;29352;48.708;9.290;2023-06-10T07:54:08;39.11;15.00;65.73;;
48148;Laerm;29352;48.708;9.290;2023-06-10T07:56:34;39.06;15.00;49.81;;
48148;Laerm;29352;48.708;9.290;2023-06-10T07:58:59;40.57;15.00;68.45;;
48148;Laerm;29352;48.708;9.290;2023-06-10T08:01:25;39.56;15.00;48.67;;
48148;Laerm;29352;48.708;9.290;2023-06-10T08:03:51;38.91;15.00;53.85;;
48148;Laerm;29352;48.708;9.290;2023-06-10T08:06:16;39.72;15.00;48.52;;
48148;Laerm;29352;48.708;9.290;2023-06-10T08:08:44;40.01;15.00;62.79;;
48148;Laerm;29352;48.708;9.290;2023-06-10T08:11:11;40.45;15.00;48.52;;
48148;Laerm;29352;48.708;9.290;2023-06-10T08:13:37;41.54;15.00;49.92;;
48148;Laerm;29352;48.708;9.290;2023-06-10T08:16:03;41.64;15.00;48.81;;
48148;Laerm;29352;48.708;9.290;2023-06-10T08:18:29;41.74;15.00;48.81;;
48148;Laerm;29352;48.708;9.290;2023-06-10T08:20:54;41.25;15.00;49.46;;
48148;Laerm;29352;48.708;9.290;2023-06-10T08:23:20;39.02;15.00;48.81;;
48148;Laerm;29352;48.708;9.290;2023-06-10T08:25:46;37.59;15.00;49.08;;
48148;Laerm;29352;48.708;9.290;2023-06-10T08:28:11;40.12;15.00;48.52;;
48148;Laerm;29352;48.708;9.290;2023-06-10T08:30:37;41.24;15.00;48.95;;
48148;Laerm;29352;48.708;9.290;2023-06-10T08:33:02;40.29;15.00;48.95;;
48148;Laerm;29352;48.708;9.290;2023-06-10T08:35:27;39.68;15.00;48.05;;
48148;Laerm;29352;48.708;9.290;2023-06-10T08:37:53;37.90;15.00;47.70;;
48148;Laerm;29352;48.708;9.290;2023-06-10T08:40:19;38.64;15.00;48.21;;
48148;Laerm;29352;48.708;9.290;2023-06-10T08:43:05;40.31;15.00;48.52;;
48148;Laerm;29352;48.708;9.290;2023-06-10T08:45:36;40.74;15.00;49.21;;
48148;Laerm;29352;48.708;9.290;2023-06-10T08:48:03;40.49;15.00;49.08;;
48148;Laerm;29352;48.708;9.290;2023-06-10T08:50:34;41.67;15.00;48.67;;
48148;Laerm;29352;48.708;9.290;2023-06-10T08:53:06;42.05;15.00;49.21;;
48148;Laerm;29352;48.708;9.290;2023-06-10T08:55:35;41.27;15.00;48.81;;
48148;Laerm;29352;48.708;9.290;2023-06-10T08:58:03;42.65;15.00;50.71;;
48148;Laerm;29352;48.708;9.290;2023-06-10T09:00:30;42.76;15.00;49.21;;
48148;Laerm;29352;48.708;9.290;2023-06-10T09:02:58;42.43;15.00;48.67;;
48148;Laerm;29352;48.708;9.290;2023-06-10T09:05:26;42.32;15.00;48.95;;
48148;Laerm;29352;48.708;9.290;2023-06-10T09:07:53;42.00;15.00;49.21;;
48148;Laerm;29352;48.708;9.290;2023-06-10T09:10:21;42.54;15.00;49.70;;
48148;Laerm;29352;48.708;9.290;2023-06-10T09:12:46;41.04;15.00;48.67;;
48148;Laerm;29352;48.708;9.290;2023-06-10T09:15:12;42.27;15.00;49.81;;
48148;Laerm;29352;48.708;9.290;2023-06-10T09:17:39;43.95;15.00;49.58;;
48148;Laerm;29352;48.708;9.290;2023-06-10T09:20:07;44.94;15.00;49.46;;
48148;Laerm;29352;48.708;9.290;2023-06-10T09:22:33;45.09;15.00;49.92;;
48148;Laerm;29352;48.708;9.290;2023-06-10T09:25:13;44.59;15.00;49.34;;
48148;Laerm;29352;48.708;9.290;2023-06-10T09:27:52;44.37;15.00;49.08;;
48148;Laerm;29352;48.708;9.290;2023-06-10T09:30:29;43.81;15.00;48.95;;
48148;Laerm;29352;48.708;9.290;2023-06-10T09:32:58;43.80;15.00;48.95;;
48148;Laerm;29352;48.708;9.290;2023-06-10T09:35:26;44.07;15.00;49.08;;
48148;Laerm;29352;48.708;9.290;2023-06-10T09:37:57;43.10;15.00;49.21;;
48148;Laerm;29352;48.708;9.290;2023-06-10T09:40:24;42.94;15.00;49.34;;
48148;Laerm;29352;48.708;9.290;2023-06-10T09:42:58;44.35;15.00;51.89;;
48148;Laerm;29352;48.708;9.290;2023-06-10T09:45:30;45.52;15.00;51.38;;
48148;Laerm;29352;48.708;9.290;2023-06-10T09:48:00;45.58;15.00;49.58;;
48148;Laerm;29352;48.708;9.290;2023-06-10T09:50:25;45.60;15.00;50.13;;
48148;Laerm;29352;48.708;9.290;2023-06-10T09:52:51;45.09;15.00;49.46;;
48148;Laerm;29352;48.708;9.290;2023-06-10T09:55:18;44.77;15.00;49.81;;
48148;Laerm;29352;48.708;9.290;2023-06-10T09:57:44;44.64;15.00;49.58;;
48148;Laerm;29352;48.708;9.290;2023-06-10T10:00:14;44.55;15.00;49.58;;
48148;Laerm;29352;48.708;9.290;2023-06-10T10:05:14;44.92;15.00;49.70;;
48148;Laerm;29352;48.708;9.290;2023-06-10T10:07:41;44.26;15.00;48.99;;
48148;Laerm;29352;48.708;9.290;2023-06-10T10:10:07;44.03;15.00;49.08;;
48148;Laerm;29352;48.708;9.290;2023-06-10T10:12:35;43.87;15.00;49.21;;
48148;Laerm;29352;48.708;9.290;2023-06-10T10:15:02;43.12;15.00;48.37;;
48148;Laerm;29352;48.708;9.290;2023-06-10T10:17:31;44.01;15.00;49.08;;
48148;Laerm;29352;48.708;9.290;2023-06-10T10:20:04;43.97;15.00;48.67;;
48148;Laerm;29352;48.708;9.290;2023-06-10T10:22:39;43.71;15.00;48.81;;
48148;Laerm;29352;48.708;9.290;2023-06-10T10:25:13;43.44;15.00;48.81;;
48148;Laerm;29352;48.708;9.290;2023-06-10T10:27:52;43.49;15.00;49.46;;
48148;Laerm;29352;48.708;9.290;2023-06-10T10:30:20;44.74;15.00;49.81;;
48148;Laerm;29352;48.708;9.290;2023-06-10T10:35:36;44.28;15.00;49.21;;
48148;Laerm;29352;48.708;9.290;2023-06-10T10:38:04;45.35;15.00;50.03;;
48148;Laerm;29352;48.708;9.290;2023-06-10T10:40:32;46.06;15.00;50.03;;
48148;Laerm;29352;48.708;9.290;2023-06-10T10:43:00;45.66;15.00;49.70;;
48148;Laerm;29352;48.708;9.290;2023-06-10T10:45:28;45.53;15.00;50.62;;
48148;Laerm;29352;48.708;9.290;2023-06-10T10:47:55;45.87;15.00;50.89;;
48148;Laerm;29352;48.708;9.290;2023-06-10T10:50:22;45.18;15.00;49.81;;
48148;Laerm;29352;48.708;9.290;2023-06-10T10:52:56;44.64;15.00;49.46;;
48148;Laerm;29352;48.708;9.290;2023-06-10T10:55:23;45.20;15.00;49.81;;
48148;Laerm;29352;48.708;9.290;2023-06-10T10:58:06;46.63;15.00;50.62;;
48148;Laerm;29352;48.708;9.290;2023-06-10T11:00:35;45.56;15.00;49.92;;
48148;Laerm;29352;48.708;9.290;2023-06-10T11:05:40;44.15;15.00;49.08;;
48148;Laerm;29352;48.708;9.290;2023-06-10T11:08:08;44.92;15.00;49.34;;
48148;Laerm;29352;48.708;9.290;2023-06-10T11:10:37;43.44;15.00;48.81;;
48148;Laerm;29352;48.708;9.290;2023-06-10T11:13:10;42.79;15.00;48.81;;
48148;Laerm;29352;48.708;9.290;2023-06-10T11:15:49;43.36;15.00;48.52;;
48148;Laerm;29352;48.708;9.290;2023-06-10T11:18:26;43.11;15.00;48.95;;
48148;Laerm;29352;48.708;9.290;2023-06-10T11:20:56;43.68;15.00;48.67;;
48148;Laerm;29352;48.708;9.290;2023-06-10T11:31:31;44.98;15.00;49.81;;
48148;Laerm;29352;48.708;9.290;2023-06-10T11:34:02;45.42;15.00;50.33;;
48148;Laerm;29352;48.708;9.290;2023-06-10T11:36:36;44.06;15.00;49.08;;
48148;Laerm;29352;48.708;9.290;2023-06-10T11:39:05;44.49;15.00;48.81;;
48148;Laerm;29352;48.708;9.290;2023-06-10T11:41:33;44.90;15.00;49.81;;
48148;Laerm;29352;48.708;9.290;2023-06-10T11:44:07;45.65;15.00;50.23;;
48148;Laerm;29352;48.708;9.290;2023-06-10T11:46:34;45.82;15.00;50.13;;
48148;Laerm;29352;48.708;9.290;2023-06-10T11:49:01;46.72;15.00;50.71;;
48148;Laerm;29352;48.708;9.290;2023-06-10T11:51:34;46.07;15.00;49.81;;
48148;Laerm;29352;48.708;9.290;2023-06-10T11:54:01;44.51;15.00;49.70;;
48148;Laerm;29352;48.708;9.290;2023-06-10T11:56:30;45.37;15.00;50.13;;
48148;Laerm;29352;48.708;9.290;2023-06-10T11:58:58;47.71;15.00;51.75;;
48148;Laerm;29352;48.708;9.290;2023-06-10T12:01:26;48.94;43.44;52.09;;
48148;Laerm;29352;48.708;9.290;2023-06-10T12:04:21;48.00;38.67;51.53;;
48148;Laerm;29352;48.708;9.290;2023-06-10T12:06:48;45.54;15.00;49.92;;
48148;Laerm;29352;48.708;9.290;2023-06-10T12:09:24;44.42;15.00;48.95;;
48148;Laerm;29352;48.708;9.290;2023-06-10T12:11:57;44.41;15.00;48.95;;
48148;Laerm;29352;48.708;9.290;2023-06-10T12:14:54;44.24;15.00;49.21;;
48148;Laerm;29352;48.708;9.290;2023-06-10T12:17:42;44.79;15.00;49.21;;
48148;Laerm;29352;48.708;9.290;2023-06-10T12:20:25;44.87;15.00;49.46;;
48148;Laerm;29352;48.708;9.290;2023-06-10T12:22:51;44.49;15.00;50.23;;
48148;Laerm;29352;48.708;9.290;2023-06-10T12:25:16;43.69;15.00;48.52;;
48148;Laerm;29352;48.708;9.290;2023-06-10T12:27:53;43.18;15.00;49.08;;
48148;Laerm;29352;48.708;9.290;2023-06-10T12:30:25;44.36;15.00;55.39;;
48148;Laerm;29352;48.708;9.290;2023-06-10T12:32:52;44.84;15.00;50.13;;
48148;Laerm;29352;48.708;9.290;2023-06-10T12:35:22;44.70;15.00;49.46;;
48148;Laerm;29352;48.708;9.290;2023-06-10T12:38:05;44.64;15.00;49.70;;
48148;Laerm;29352;48.708;9.290;2023-06-10T12:40:38;44.65;15.00;49.81;;
48148;Laerm;29352;48.708;9.290;2023-06-10T12:43:06;46.59;15.00;50.89;;
48148;Laerm;29352;48.708;9.290;2023-06-10T12:45:37;46.49;33.90;50.71;;
48148;Laerm;29352;48.708;9.290;2023-06-10T12:48:23;46.18;15.00;50.23;;
48148;Laerm;29352;48.708;9.290;2023-06-10T12:50:55;45.45;15.00;49.92;;
48148;Laerm;29352;48.708;9.290;2023-06-10T12:53:22;44.25;15.00;49.46;;
48148;Laerm;29352;48.708;9.290;2023-06-10T12:55:49;45.88;15.00;49.81;;
48148;Laerm;29352;48.708;9.290;2023-06-10T12:58:14;44.04;15.00;49.46;;
48148;Laerm;29352;48.708;9.290;2023-06-10T13:00:40;44.46;15.00;49.34;;
48148;Laerm;29352;48.708;9.290;2023-06-10T13:03:08;44.52;15.00;49.70;;
48148;Laerm;29352;48.708;9.290;2023-06-10T13:05:38;44.13;15.00;49.34;;
48148;Laerm;29352;48.708;9.290;2023-06-10T13:08:06;44.07;15.00;48.67;;
48148;Laerm;29352;48.708;9.290;2023-06-10T13:10:33;44.41;15.00;49.34;;
48148;Laerm;29352;48.708;9.290;2023-06-10T13:13:03;44.38;15.00;48.95;;
48148;Laerm;29352;48.708;9.290;2023-06-10T13:15:32;43.48;15.00;48.52;;
48148;Laerm;29352;48.708;9.290;2023-06-10T13:18:02;43.18;15.00;48.95;;
48148;Laerm;29352;48.708;9.290;2023-06-10T13:20:29;43.16;15.00;48.52;;
48148;Laerm;29352;48.708;9.290;2023-06-10T13:22:55;44.13;15.00;48.67;;
48148;Laerm;29352;48.708;9.290;2023-06-10T13:25:20;44.68;15.00;49.58;;
48148;Laerm;29352;48.708;9.290;2023-06-10T13:27:45;44.34;15.00;49.46;;
48148;Laerm;29352;48.708;9.290;2023-06-10T13:30:11;42.40;15.00;49.21;;
48148;Laerm;29352;48.708;9.290;2023-06-10T13:32:37;42.82;15.00;48.95;;
48148;Laerm;29352;48.708;9.290;2023-06-10T13:35:03;40.15;15.00;47.70;;
48148;Laerm;29352;48.708;9.290;2023-06-10T13:37:29;39.91;15.00;47.88;;
48148;Laerm;29352;48.708;9.290;2023-06-10T13:39:54;39.63;15.00;48.05;;
48148;Laerm;29352;48.708;9.290;2023-06-10T13:42:20;42.32;15.00;49.46;;
48148;Laerm;29352;48.708;9.290;2023-06-10T13:44:49;45.59;15.00;49.70;;
48148;Laerm;29352;48.708;9.290;2023-06-10T13:47:15;56.92;15.00;76.17;;
48148;Laerm;29352;48.708;9.290;2023-06-10T13:49:41;39.63;15.00;56.45;;
48148;Laerm;29352;48.708;9.290;2023-06-10T13:52:07;38.63;15.00;62.10;;
48148;Laerm;29352;48.708;9.290;2023-06-10T13:54:34;39.65;15.00;52.82;;
48148;Laerm;29352;48.708;9.290;2023-06-10T13:57:01;41.81;15.00;48.52;;
48148;Laerm;29352;48.708;9.290;2023-06-10T13:59:27;41.62;15.00;65.79;;
48148;Laerm;29352;48.708;9.290;2023-06-10T14:01:52;39.68;15.00;47.88;;
48148;Laerm;29352;48.708;9.290;2023-06-10T14:04:18;39.89;15.00;48.05;;
48148;Laerm;29352;48.708;9.290;2023-06-10T14:06:43;39.46;15.00;47.52;;